Clifton Park, New York
Current Conditions -  °F | °C
As of 8:51 PM on Friday 28 Nov 2014 (Local Time) from KALB Reporting Station
Scattered Clouds Scattered Clouds  
Wind Chill: 14°   Ceiling: Unl
Heat Index: 24°   Visibility: 10mi
Dew Point: 12°   Wind: 10mph
Humidity: 60%   Direction: 260°W
Pressure: 30.22"   Gusts: NA
Location:  42.87°N, 73.77°W
Report Text: KALB 290151Z 26009KT 10SM FEW041 SCT050 M04/M11 A3022 RMK AO2 SNE0059 SLP238 SCT V BKN P0000 T10441111
Loading
Personal Weather Stations






























Interactive Weather Map New forecast layout! Learn more

10-Day Weather Forecast

Advertisements
Track Severe Weather on mobile